Time;durP1;ratioP1;P1;durP2;ratioP2;P2;SDS_P1;SDS_P2;PMS_P1;PMS_P2;Temp;Humidity;BMP_temperature;BMP_pressure;BME280_temperature;BME280_humidity;BME280_pressure;Samples;Min_cycle;Max_cycle;Signal;HPM_P1;HPM_P2
2022/08/13 00:00:35;;;;;;;4.42;3.87;;;;;;;28.09;40.36;100467.80;1804593;78;20975;-84
2022/08/13 00:03:01;;;;;;;5.62;4.85;;;;;;;28.08;40.36;100468.98;1805145;78;21445;-84
2022/08/13 00:05:28;;;;;;;6.45;4.55;;;;;;;28.09;40.36;100462.20;1804889;79;21017;-84
2022/08/13 00:07:54;;;;;;;5.17;4.28;;;;;;;28.09;40.36;100458.59;1804523;79;21050;-84
2022/08/13 00:10:32;;;;;;;4.90;4.40;;;;;;;28.09;40.38;100460.81;1804254;79;21014;-83
2022/08/13 00:13:03;;;;;;;6.47;4.70;;;;;;;28.09;40.39;100459.41;1804145;78;21058;-84
2022/08/13 00:15:29;;;;;;;4.90;4.25;;;;;;;28.09;40.39;100461.40;1803970;78;21167;-83
2022/08/13 00:18:03;;;;;;;5.55;4.72;;;;;;;28.08;40.39;100466.18;1803496;79;21456;-82
2022/08/13 00:20:34;;;;;;;5.25;4.47;;;;;;;28.08;40.42;100459.19;1804835;79;21636;-83
2022/08/13 00:23:01;;;;;;;5.42;4.45;;;;;;;28.08;40.42;100452.20;1804442;79;20974;-85
2022/08/13 00:25:27;;;;;;;5.17;4.15;;;;;;;28.09;40.44;100455.80;1804138;79;20997;-84
2022/08/13 00:28:02;;;;;;;6.15;5.03;;;;;;;28.08;40.44;100453.59;1803583;79;20987;-84
2022/08/13 00:30:33;;;;;;;4.85;4.20;;;;;;;28.08;40.45;100452.78;1803812;78;21022;-83
2022/08/13 00:33:12;;;;;;;5.50;4.70;;;;;;;28.08;40.46;100445.20;1803556;79;21042;-83
2022/08/13 00:35:50;;;;;;;5.42;4.67;;;;;;;28.07;40.46;100449.18;1803680;78;21008;-84
2022/08/13 00:38:24;;;;;;;5.30;4.30;;;;;;;28.07;40.50;100450.58;1803462;79;21030;-83
2022/08/13 00:40:53;;;;;;;5.10;4.37;;;;;;;28.07;40.50;100449.18;1803579;79;21501;-83
2022/08/13 00:43:20;;;;;;;5.65;4.90;;;;;;;28.06;40.52;100441.97;1803491;79;21077;-83
2022/08/13 00:45:47;;;;;;;4.75;4.25;;;;;;;28.07;40.51;100446.38;1803820;78;21488;-83
2022/08/13 00:50:58;;;;;;;5.42;4.47;;;;;;;28.06;40.54;100444.76;1803534;79;21003;-83
2022/08/13 00:53:25;;;;;;;5.35;4.40;;;;;;;28.06;40.57;100442.55;1803698;79;21832;-83
2022/08/13 00:55:55;;;;;;;5.33;4.70;;;;;;;28.05;40.57;100441.74;1803617;79;21046;-83
2022/08/13 00:58:23;;;;;;;5.12;4.47;;;;;;;28.06;40.59;100439.76;1803583;78;21011;-83
2022/08/13 01:00:51;;;;;;;5.30;4.80;;;;;;;28.06;40.59;100440.56;1803700;79;21661;-83
2022/08/13 01:03:18;;;;;;;5.55;4.55;;;;;;;28.05;40.59;100434.75;1803548;79;21085;-83
2022/08/13 01:05:47;;;;;;;4.75;4.22;;;;;;;28.06;40.60;100434.16;1803219;78;21556;-83
2022/08/13 01:08:16;;;;;;;5.12;4.30;;;;;;;28.06;40.63;100432.77;1803666;79;21558;-83
2022/08/13 01:10:44;;;;;;;5.80;4.85;;;;;;;28.06;40.64;100436.38;1803308;79;21058;-83
2022/08/13 01:13:11;;;;;;;5.03;4.42;;;;;;;28.06;40.64;100432.17;1803184;79;21054;-82
2022/08/13 01:15:39;;;;;;;6.17;4.80;;;;;;;28.05;40.65;100440.34;1803527;78;21070;-83
2022/08/13 01:18:13;;;;;;;6.92;4.80;;;;;;;28.05;40.66;100440.34;1803707;78;22053;-83
2022/08/13 01:20:47;;;;;;;5.90;4.35;;;;;;;28.06;40.66;100445.34;1781759;79;21046;-84
2022/08/13 01:23:14;;;;;;;5.42;4.45;;;;;;;28.05;40.69;100440.34;1802023;79;21030;-83
2022/08/13 01:25:42;;;;;;;6.08;5.40;;;;;;;28.06;40.69;100437.77;1803448;78;20999;-83
2022/08/13 01:28:09;;;;;;;5.25;4.70;;;;;;;28.05;40.70;100438.95;1803982;78;21054;-83
2022/08/13 01:30:35;;;;;;;5.10;4.58;;;;;;;28.05;40.71;100426.98;1803913;78;21532;-84
2022/08/13 01:33:02;;;;;;;4.87;4.37;;;;;;;28.05;40.74;100427.76;1803449;78;21429;-84
2022/08/13 01:35:29;;;;;;;5.30;4.80;;;;;;;28.06;40.74;100432.17;1803805;78;21054;-83
2022/08/13 01:37:57;;;;;;;6.15;4.47;;;;;;;28.05;40.75;100423.56;1803852;79;20992;-83
2022/08/13 01:40:24;;;;;;;5.10;4.60;;;;;;;28.05;40.75;100418.59;1803502;79;20983;-83
2022/08/13 01:42:50;;;;;;;4.83;4.30;;;;;;;28.05;40.77;100419.37;1803691;78;21050;-83
2022/08/13 01:45:17;;;;;;;5.17;4.67;;;;;;;28.06;40.77;100420.18;1803498;78;21077;-83
2022/08/13 01:50:30;;;;;;;6.55;5.45;;;;;;;28.04;40.80;100410.79;1803645;78;21003;-83
2022/08/13 01:53:11;;;;;;;6.45;4.87;;;;;;;28.05;40.82;100415.17;1803365;78;21027;-83
2022/08/13 01:55:41;;;;;;;5.15;4.47;;;;;;;28.04;40.80;100413.58;1803924;79;21129;-83
2022/08/13 01:58:11;;;;;;;6.40;5.00;;;;;;;28.04;40.82;100410.79;1803704;78;21030;-83
2022/08/13 02:00:39;;;;;;;6.25;4.53;;;;;;;28.04;40.83;100413.58;1803385;78;21728;-83
2022/08/13 02:03:09;;;;;;;5.92;4.80;;;;;;;28.05;40.83;100406.00;1803878;79;21093;-83
2022/08/13 02:05:36;;;;;;;5.10;4.60;;;;;;;28.04;40.85;100403.80;1803559;78;21062;-83
2022/08/13 02:08:02;;;;;;;7.10;4.70;;;;;;;28.04;40.88;100402.98;1803754;78;22076;-84
2022/08/13 02:10:29;;;;;;;5.37;4.65;;;;;;;28.04;40.86;100396.00;1803793;78;21034;-83
2022/08/13 02:12:56;;;;;;;5.62;4.58;;;;;;;28.03;40.89;100387.39;1803334;78;21019;-83
2022/08/13 02:15:22;;;;;;;6.30;4.62;;;;;;;28.04;40.91;100391.80;1798585;78;22016;-83
2022/08/13 02:17:49;;;;;;;5.53;4.70;;;;;;;28.03;40.92;100393.79;1822145;78;21088;-83
2022/08/13 02:20:17;;;;;;;5.50;4.78;;;;;;;28.03;40.92;100395.19;1833742;78;21140;-83
2022/08/13 02:22:48;;;;;;;5.30;4.80;;;;;;;28.03;40.93;100389.59;1840063;77;20969;-83
2022/08/13 02:25:16;;;;;;;7.08;5.03;;;;;;;28.04;40.92;100398.20;1842248;77;21482;-83
2022/08/13 02:27:42;;;;;;;5.15;4.65;;;;;;;28.03;40.96;100388.78;1841824;77;21040;-83
2022/08/13 02:30:10;;;;;;;5.00;4.22;;;;;;;28.04;40.96;100384.81;1842075;77;22100;-83
2022/08/13 02:32:39;;;;;;;5.10;4.40;;;;;;;28.04;41.00;100389.81;1842086;77;21662;-83
2022/08/13 02:35:08;;;;;;;5.00;4.47;;;;;;;28.03;40.98;100386.80;1841959;77;21486;-83
2022/08/13 02:37:35;;;;;;;5.08;4.58;;;;;;;28.03;40.99;100385.98;1842164;77;21044;-84
2022/08/13 02:40:04;;;;;;;5.97;4.60;;;;;;;28.04;41.02;100390.41;1842211;77;21024;-83
2022/08/13 02:42:31;;;;;;;7.70;4.80;;;;;;;28.03;41.03;100384.59;1842143;77;21020;-83
2022/08/13 02:44:58;;;;;;;6.58;4.80;;;;;;;28.03;41.03;100381.79;1842424;77;21039;-83
2022/08/13 02:47:25;;;;;;;5.80;5.05;;;;;;;28.03;41.04;100385.98;1809777;77;21028;-84
2022/08/13 02:49:52;;;;;;;5.12;4.62;;;;;;;28.04;41.05;100390.41;1842088;77;20997;-83
2022/08/13 02:52:19;;;;;;;6.62;5.20;;;;;;;28.03;41.04;100377.59;1842389;77;21013;-83
2022/08/13 02:54:48;;;;;;;5.10;4.60;;;;;;;28.02;41.05;100383.78;1842279;77;21005;-83
2022/08/13 02:57:14;;;;;;;5.20;4.70;;;;;;;28.03;41.10;100381.79;1841980;77;21918;-83
2022/08/13 02:59:44;;;;;;;5.78;4.80;;;;;;;28.02;41.09;100382.38;1842278;77;20978;-83
2022/08/13 03:02:10;;;;;;;6.05;5.05;;;;;;;28.02;41.10;100380.98;1842721;77;21021;-84
2022/08/13 03:04:41;;;;;;;5.92;4.90;;;;;;;28.02;41.11;100376.79;1842361;77;21016;-84
2022/08/13 03:07:07;;;;;;;;;;;;;;;28.01;41.11;100379.36;1844918;77;21500;-83
2022/08/13 03:09:33;;;;;;;5.58;4.97;;;;;;;28.01;41.12;100376.56;1842596;77;21001;-83
2022/08/13 03:12:03;;;;;;;5.55;4.78;;;;;;;28.00;41.11;100373.58;1842149;77;21107;-83
2022/08/13 03:14:32;;;;;;;5.83;4.85;;;;;;;28.00;41.13;100369.97;1842693;77;21021;-84
2022/08/13 03:16:58;;;;;;;5.47;4.92;;;;;;;28.01;41.13;100374.36;1842608;77;21051;-83
2022/08/13 03:19:25;;;;;;;5.70;4.97;;;;;;;28.00;41.18;100376.37;1842348;77;20966;-83
2022/08/13 03:21:51;;;;;;;5.20;4.67;;;;;;;28.01;41.19;100371.56;1838227;77;21969;-83
2022/08/13 03:24:18;;;;;;;5.30;4.80;;;;;;;28.01;41.19;100368.77;1830956;78;20981;-83
2022/08/13 03:26:45;;;;;;;5.42;4.92;;;;;;;28.00;41.22;100372.77;1830712;78;21065;-83
2022/08/13 03:29:11;;;;;;;6.00;4.72;;;;;;;28.00;41.24;100366.59;1831034;77;21143;-83
2022/08/13 03:31:39;;;;;;;6.20;5.15;;;;;;;28.00;41.24;100370.78;1831154;77;21045;-84
2022/08/13 03:34:06;;;;;;;5.85;4.83;;;;;;;28.01;41.24;100378.55;1830770;77;21041;-83
2022/08/13 03:36:33;;;;;;;5.58;4.97;;;;;;;28.01;41.24;100379.36;1831000;77;20975;-83
2022/08/13 03:39:00;;;;;;;5.62;4.92;;;;;;;28.00;41.25;100377.77;1807989;78;21022;-83
2022/08/13 03:41:26;;;;;;;5.80;5.20;;;;;;;28.01;41.27;100378.55;1830876;78;21392;-83
2022/08/13 03:43:53;;;;;;;6.00;5.17;;;;;;;28.00;41.27;100383.37;1830878;77;21472;-83
2022/08/13 03:46:23;;;;;;;5.50;5.00;;;;;;;28.00;41.30;100383.37;1830992;78;21072;-82
2022/08/13 03:48:50;;;;;;;5.57;4.93;;;;;;;28.00;41.30;100381.16;1808179;78;21017;-83
2022/08/13 03:51:19;;;;;;;5.78;5.17;;;;;;;28.00;41.29;100381.97;1830833;77;21534;-82
2022/08/13 03:53:45;;;;;;;7.97;5.37;;;;;;;28.00;41.30;100387.56;1830864;77;21010;-83
2022/08/13 03:56:13;;;;;;;5.72;4.58;;;;;;;28.00;41.33;100387.56;1830736;78;21029;-84
2022/08/13 03:58:40;;;;;;;6.78;5.15;;;;;;;28.00;41.32;100383.95;1830927;77;21009;-83
2022/08/13 04:01:08;;;;;;;6.10;5.28;;;;;;;28.00;41.31;100394.55;1830718;78;21028;-83
2022/08/13 04:03:41;;;;;;;5.65;4.72;;;;;;;28.00;41.36;100390.36;1830696;78;20988;-83
2022/08/13 04:06:19;;;;;;;5.53;4.90;;;;;;;28.01;41.34;100389.73;1830649;77;21746;-84
2022/08/13 04:08:48;;;;;;;6.30;5.03;;;;;;;28.00;41.35;100386.75;1830778;78;20978;-84
2022/08/13 04:11:17;;;;;;;5.85;4.90;;;;;;;28.00;41.34;100390.36;1831100;77;21556;-83
2022/08/13 04:13:50;;;;;;;5.45;4.87;;;;;;;28.01;41.36;100393.94;1830635;78;21472;-83
2022/08/13 04:16:20;;;;;;;6.75;5.15;;;;;;;27.99;41.36;100389.33;1830539;77;21441;-83
2022/08/13 04:18:47;;;;;;;;;;;;;;;27.99;41.38;100383.14;1833076;78;21041;-83
2022/08/13 04:21:15;;;;;;;5.50;4.67;;;;;;;27.99;41.38;100389.33;1830748;78;20207;-83
2022/08/13 04:23:43;;;;;;;5.80;5.20;;;;;;;27.98;41.38;100389.91;1784334;77;21518;-83
2022/08/13 04:26:11;;;;;;;6.45;5.03;;;;;;;27.98;41.41;100389.91;1778452;79;21068;-83
2022/08/13 04:28:45;;;;;;;5.67;5.10;;;;;;;27.98;41.42;100389.91;1778450;80;21048;-83
2022/08/13 04:31:11;;;;;;;6.35;5.30;;;;;;;27.98;41.41;100392.71;1778354;80;21083;-83
2022/08/13 04:33:38;;;;;;;5.35;4.83;;;;;;;27.99;41.41;100392.13;1746203;80;20981;-83
2022/08/13 04:36:06;;;;;;;5.70;5.08;;;;;;;27.99;41.43;100391.53;1778740;80;21047;-83
2022/08/13 04:38:33;;;;;;;5.83;4.97;;;;;;;28.00;41.44;100390.95;1778412;80;21067;-83
2022/08/13 04:40:59;;;;;;;6.12;5.45;;;;;;;28.00;41.44;100402.13;1778548;79;20999;-83
2022/08/13 04:43:26;;;;;;;5.25;4.75;;;;;;;28.00;41.44;100393.16;1776361;80;21024;-83
2022/08/13 04:45:59;;;;;;;7.10;4.97;;;;;;;27.99;41.44;100398.53;1760912;80;21112;-83
2022/08/13 04:48:21;;;;;;;5.92;5.33;;;;;;;27.99;41.47;100397.13;1759339;81;21991;-83
2022/08/13 04:50:48;;;;;;;7.30;5.20;;;;;;;28.01;41.47;100403.72;1759909;81;21041;-83
2022/08/13 04:53:26;;;;;;;6.12;5.25;;;;;;;28.01;41.49;100400.92;1759848;81;21487;-83
2022/08/13 04:55:53;;;;;;;5.22;4.72;;;;;;;27.99;41.49;100392.94;1759981;81;20938;-83
2022/08/13 04:58:19;;;;;;;7.40;5.65;;;;;;;28.00;41.50;100400.14;1722970;83;21486;-83
2022/08/13 05:00:46;;;;;;;6.67;5.00;;;;;;;28.01;41.52;100389.15;1703239;83;21132;-83
2022/08/13 05:03:16;;;;;;;6.30;5.70;;;;;;;28.01;41.48;100397.54;1702919;84;20968;-84
2022/08/13 05:05:44;;;;;;;5.75;5.15;;;;;;;28.01;41.50;100391.14;1702969;84;21028;-83
2022/08/13 05:08:11;;;;;;;6.00;5.40;;;;;;;28.01;41.52;100394.74;1702982;83;21043;-83
2022/08/13 05:10:39;;;;;;;6.83;5.53;;;;;;;28.01;41.52;100398.94;1702863;84;21012;-83
2022/08/13 05:13:27;;;;;;;6.62;4.85;;;;;;;28.01;41.50;100398.94;1702609;84;22048;-83
2022/08/13 05:15:58;;;;;;;5.70;5.10;;;;;;;28.02;41.53;100403.36;1702607;83;21116;-83
2022/08/13 05:18:26;;;;;;;6.58;5.47;;;;;;;28.01;41.54;100397.54;1702509;84;20964;-83
2022/08/13 05:20:53;;;;;;;7.37;5.70;;;;;;;28.02;41.55;100395.55;1702568;84;21075;-83
2022/08/13 05:23:21;;;;;;;6.08;5.33;;;;;;;28.01;41.53;100399.53;1720440;81;21057;-83
2022/08/13 05:25:48;;;;;;;5.85;5.25;;;;;;;28.02;41.53;100392.76;1732986;82;21174;-83
2022/08/13 05:28:17;;;;;;;7.50;5.83;;;;;;;28.01;41.54;100390.55;1732925;81;21048;-83
2022/08/13 05:30:46;;;;;;;6.25;5.65;;;;;;;28.02;41.54;100390.77;1733127;81;21064;-83
2022/08/13 05:33:14;;;;;;;6.15;5.47;;;;;;;28.03;41.51;100392.98;1730952;82;21531;-83
2022/08/13 05:35:42;;;;;;;6.72;5.58;;;;;;;28.02;41.52;100382.38;1733343;82;21150;-83
2022/08/13 05:38:09;;;;;;;7.92;6.17;;;;;;;28.03;41.52;100387.39;1733200;81;21546;-83
2022/08/13 05:40:38;;;;;;;6.92;6.22;;;;;;;28.02;41.50;100383.78;1732754;82;21492;-83
2022/08/13 05:43:14;;;;;;;6.58;5.87;;;;;;;28.03;41.51;100388.19;1732887;82;21040;-83
2022/08/13 05:45:43;;;;;;;6.10;5.47;;;;;;;28.04;41.49;100383.41;1732749;81;20985;-84
2022/08/13 05:48:10;;;;;;;5.70;4.97;;;;;;;28.03;41.49;100384.00;1712752;82;21072;-84
2022/08/13 05:50:37;;;;;;;7.25;5.40;;;;;;;28.03;41.48;100378.41;1733399;82;21272;-83
2022/08/13 05:53:08;;;;;;;6.67;5.47;;;;;;;28.02;41.48;100375.39;1733041;82;21467;-83
2022/08/13 05:55:38;;;;;;;7.08;5.80;;;;;;;28.04;41.52;100375.02;1733198;82;22272;-83
2022/08/13 05:58:06;;;;;;;6.35;5.22;;;;;;;28.03;41.49;100383.19;1733415;81;21511;-83
2022/08/13 06:03:28;;;;;;;6.55;5.78;;;;;;;28.04;41.52;100380.02;1733329;81;21084;-83
2022/08/13 06:06:00;;;;;;;6.55;5.45;;;;;;;28.04;41.52;100381.42;1732977;81;21536;-83
2022/08/13 06:08:29;;;;;;;6.10;5.40;;;;;;;28.04;41.52;100377.82;1731697;81;21116;-83
2022/08/13 06:10:57;;;;;;;5.90;5.30;;;;;;;28.03;41.52;100375.61;1733318;82;21092;-83
2022/08/13 06:13:25;;;;;;;5.95;5.30;;;;;;;28.03;41.52;100371.41;1737653;82;21061;-83
2022/08/13 06:16:00;;;;;;;7.58;5.75;;;;;;;28.03;41.53;100371.41;1733264;81;21108;-83
2022/08/13 06:18:35;;;;;;;6.60;5.05;;;;;;;28.03;41.51;100375.61;1732987;81;21500;-84
2022/08/13 06:21:05;;;;;;;6.15;5.37;;;;;;;28.04;41.50;100375.83;1733259;82;21052;-84
2022/08/13 06:23:34;;;;;;;6.80;5.70;;;;;;;28.04;41.48;100369.43;1799385;78;21856;-83
2022/08/13 06:26:01;;;;;;;7.27;5.57;;;;;;;28.04;41.48;100377.23;1804119;78;21048;-84
2022/08/13 06:28:30;;;;;;;6.25;5.40;;;;;;;28.05;41.48;100377.42;1803917;79;20984;-84
2022/08/13 06:31:06;;;;;;;5.80;5.00;;;;;;;28.04;41.47;100375.83;1803550;78;21004;-83
2022/08/13 06:33:36;;;;;;;5.75;5.15;;;;;;;28.05;41.48;100378.04;1800763;79;20986;-83
2022/08/13 06:36:06;;;;;;;7.17;5.00;;;;;;;28.04;41.47;100368.84;1787591;78;21042;-83
2022/08/13 06:38:42;;;;;;;5.67;4.97;;;;;;;28.06;41.46;100374.03;1788166;78;27231;-84
2022/08/13 06:41:10;;;;;;;6.28;5.67;;;;;;;28.04;41.45;100371.64;1787624;79;21172;-84
2022/08/13 06:43:47;;;;;;;5.53;5.03;;;;;;;28.04;41.46;100374.44;1787512;78;21610;-84
2022/08/13 06:46:15;;;;;;;5.75;5.10;;;;;;;28.06;41.47;100376.83;1787635;80;20911;-83
2022/08/13 06:48:41;;;;;;;7.12;5.03;;;;;;;28.05;41.51;100362.66;1787782;80;21017;-84
2022/08/13 06:51:10;;;;;;;6.40;5.70;;;;;;;28.05;41.54;100362.66;1787803;78;21031;-83
2022/08/13 06:53:40;;;;;;;6.97;5.40;;;;;;;28.05;41.55;100366.86;1766532;80;21831;-84
2022/08/13 06:56:11;;;;;;;6.25;5.40;;;;;;;28.06;41.53;100365.05;1777270;79;21023;-83
2022/08/13 06:58:38;;;;;;;6.00;5.40;;;;;;;28.07;41.53;100361.67;1777167;80;21492;-84
2022/08/13 07:01:05;;;;;;;6.15;5.25;;;;;;;28.06;41.53;100365.64;1776908;79;21026;-84
2022/08/13 07:03:33;;;;;;;6.05;5.20;;;;;;;28.06;41.57;100364.25;1777209;79;21043;-84
2022/08/13 07:06:00;;;;;;;6.20;5.40;;;;;;;28.07;41.58;100370.88;1777201;79;21533;-83
2022/08/13 07:08:28;;;;;;;6.20;5.53;;;;;;;28.07;41.61;100365.28;1776727;79;21454;-83
2022/08/13 07:13:43;;;;;;;6.87;5.78;;;;;;;28.08;41.59;100368.30;1776632;79;20999;-84
2022/08/13 07:16:11;;;;;;;6.17;5.33;;;;;;;28.07;41.61;100366.67;1776987;79;21093;-84
2022/08/13 07:18:38;;;;;;;5.78;5.00;;;;;;;28.08;41.62;100366.09;1777106;80;21525;-83
2022/08/13 07:21:10;;;;;;;7.10;5.65;;;;;;;28.09;41.59;100366.30;1766038;80;21011;-83
2022/08/13 07:23:38;;;;;;;6.42;5.70;;;;;;;28.08;41.59;100359.09;1785047;79;21540;-83
2022/08/13 07:26:13;;;;;;;6.85;5.60;;;;;;;28.09;41.59;100359.31;1795910;79;21034;-84
2022/08/13 07:28:40;;;;;;;5.83;5.22;;;;;;;28.09;41.59;100358.73;1796057;79;21608;-84
2022/08/13 07:31:08;;;;;;;6.58;5.33;;;;;;;28.09;41.59;100349.53;1796113;79;21193;-83
2022/08/13 07:33:36;;;;;;;5.70;5.10;;;;;;;28.09;41.61;100350.34;1796030;79;21129;-84
2022/08/13 07:36:08;;;;;;;6.00;5.28;;;;;;;28.09;41.61;100347.54;1795817;79;21078;-84
2022/08/13 07:38:35;;;;;;;6.40;5.72;;;;;;;28.10;41.58;100353.35;1795820;79;21023;-84
2022/08/13 07:41:02;;;;;;;5.80;5.05;;;;;;;28.10;41.58;100346.95;1796061;79;21093;-84
2022/08/13 07:43:32;;;;;;;6.00;5.40;;;;;;;28.11;41.60;100348.57;1795653;79;22404;-84
2022/08/13 07:46:05;;;;;;;6.50;5.37;;;;;;;28.11;41.64;100340.17;1795824;79;21011;-84
2022/08/13 07:48:31;;;;;;;5.85;5.30;;;;;;;28.12;41.61;100339.00;1795129;79;21010;-83
2022/08/13 07:51:00;;;;;;;6.53;5.70;;;;;;;28.12;41.61;100333.41;1796146;79;21070;-83
2022/08/13 07:53:28;;;;;;;6.42;5.65;;;;;;;28.12;41.63;100332.81;1775597;79;21023;-83
2022/08/13 07:55:55;;;;;;;6.25;5.55;;;;;;;28.11;41.64;100323.40;1795802;79;22043;-84
2022/08/13 07:58:27;;;;;;;7.47;5.47;;;;;;;28.13;41.66;100329.43;1795979;79;21024;-84
2022/08/13 08:00:50;;;;;;;7.33;5.22;;;;;;;28.13;41.67;100323.84;1743972;82;21060;-84
2022/08/13 08:03:17;;;;;;;5.87;5.08;;;;;;;28.13;41.69;100329.43;1744351;81;21041;-83
2022/08/13 08:05:44;;;;;;;6.70;5.50;;;;;;;28.13;41.69;100326.02;1744616;80;20999;-83
2022/08/13 08:08:11;;;;;;;6.58;5.87;;;;;;;28.13;41.72;100323.22;1734044;82;21103;-84
2022/08/13 08:10:41;;;;;;;6.90;5.45;;;;;;;28.14;41.72;100317.03;1728045;83;21026;-83
2022/08/13 08:13:11;;;;;;;6.17;5.58;;;;;;;28.14;41.75;100314.23;1728674;83;21057;-84
2022/08/13 08:15:37;;;;;;;6.37;5.50;;;;;;;28.13;41.74;100312.65;1728663;83;21064;-84
2022/08/13 08:18:04;;;;;;;6.78;6.00;;;;;;;28.13;41.75;100310.63;1792545;80;21047;-83
2022/08/13 08:20:30;;;;;;;6.47;5.50;;;;;;;28.15;41.77;100308.86;1793279;79;21326;-83
2022/08/13 08:22:57;;;;;;;6.90;5.83;;;;;;;28.14;41.78;100309.45;1793363;79;21027;-83
2022/08/13 08:25:24;;;;;;;6.58;5.83;;;;;;;28.15;41.79;100311.66;1806376;79;21052;-83
2022/08/13 08:27:50;;;;;;;6.30;5.40;;;;;;;28.15;41.80;100302.68;1814132;79;21068;-83
2022/08/13 08:30:19;;;;;;;5.85;5.25;;;;;;;28.17;41.79;100301.50;1814521;78;21024;-83
2022/08/13 08:32:53;;;;;;;6.17;5.58;;;;;;;28.16;41.77;100299.30;1814241;79;21157;-84
2022/08/13 08:35:18;;;;;;;6.40;5.72;;;;;;;28.16;41.77;100300.69;1814400;78;20957;-84
2022/08/13 08:43:16;;;;;;;6.47;5.78;;;;;;;28.17;41.76;100284.72;1814328;79;21024;-84
2022/08/13 08:45:42;;;;;;;6.78;5.08;;;;;;;28.14;41.73;100277.28;1814064;79;21938;-83
2022/08/13 08:48:09;;;;;;;6.17;5.55;;;;;;;28.16;41.73;100281.11;1814396;79;21031;-84
2022/08/13 08:50:36;;;;;;;6.62;5.37;;;;;;;28.17;41.78;100277.72;1791785;79;21083;-84
2022/08/13 08:53:21;;;;;;;8.30;5.47;;;;;;;28.17;41.77;100274.92;1814153;79;21431;-83
2022/08/13 08:55:55;;;;;;;5.92;5.35;;;;;;;28.16;41.79;100272.72;1814413;78;21028;-85
2022/08/13 08:58:22;;;;;;;5.90;5.30;;;;;;;28.17;41.78;100272.13;1814364;79;21176;-84
2022/08/13 09:00:56;;;;;;;5.28;4.78;;;;;;;28.18;41.77;100266.13;1814279;78;20985;-84
2022/08/13 09:03:24;;;;;;;7.08;5.58;;;;;;;28.19;41.78;100258.55;1814521;79;21556;-84
2022/08/13 09:05:50;;;;;;;6.70;5.80;;;;;;;28.19;41.82;100255.76;1814266;78;20985;-83
2022/08/13 09:08:18;;;;;;;6.80;5.58;;;;;;;28.18;41.84;100259.14;1814568;79;21040;-84
2022/08/13 09:10:48;;;;;;;6.75;6.00;;;;;;;28.19;41.79;100253.77;1814596;78;21105;-83
2022/08/13 09:13:19;;;;;;;5.87;5.30;;;;;;;28.19;41.82;100243.98;1813842;78;21001;-81
2022/08/13 09:15:42;;;;;;;5.95;5.35;;;;;;;28.19;41.81;100243.17;1813809;78;21012;-82
2022/08/13 09:18:08;;;;;;;6.08;5.47;;;;;;;28.19;41.81;100243.98;1791694;79;21099;-82
2022/08/13 09:20:35;;;;;;;6.03;5.40;;;;;;;28.18;41.81;100238.16;1813999;79;22146;-82
2022/08/13 09:23:06;;;;;;;5.85;5.25;;;;;;;28.19;41.81;100244.56;1814276;79;21799;-82
2022/08/13 09:25:32;;;;;;;6.30;5.62;;;;;;;28.20;41.81;100244.20;1806662;79;20978;-82
2022/08/13 09:27:59;;;;;;;6.37;5.47;;;;;;;28.20;41.81;100233.59;1797841;78;21048;-82
2022/08/13 09:30:25;;;;;;;7.42;5.70;;;;;;;28.20;41.82;100228.00;1797888;79;21583;-83
2022/08/13 09:32:56;;;;;;;6.17;5.35;;;;;;;28.20;41.82;100234.41;1798271;79;21044;-83
2022/08/13 09:35:24;;;;;;;6.67;5.97;;;;;;;28.21;41.81;100231.02;1797833;78;22012;-82
2022/08/13 09:37:50;;;;;;;5.65;5.05;;;;;;;28.22;41.79;100222.84;1797870;78;21006;-82
2022/08/13 09:40:17;;;;;;;6.47;5.87;;;;;;;28.20;41.81;100221.82;1775750;79;21050;-82
2022/08/13 09:43:02;;;;;;;6.55;5.58;;;;;;;28.20;41.82;100219.02;1795505;78;21031;-81
2022/08/13 09:45:30;;;;;;;6.10;5.35;;;;;;;28.21;41.83;100218.43;1779525;79;21562;-82
2022/08/13 09:47:56;;;;;;;6.17;5.55;;;;;;;28.21;41.82;100216.44;1795620;79;21088;-82
2022/08/13 09:50:25;;;;;;;6.97;5.42;;;;;;;28.20;41.82;100214.83;1795608;79;21106;-82
2022/08/13 09:52:56;;;;;;;6.03;5.42;;;;;;;28.21;41.83;100214.23;1795638;78;21026;-82
2022/08/13 09:55:25;;;;;;;6.45;5.50;;;;;;;28.20;41.81;100214.83;1795425;79;21054;-83
2022/08/13 09:58:00;;;;;;;6.00;5.12;;;;;;;28.21;41.78;100210.04;1796153;78;21517;-83
2022/08/13 10:00:32;;;;;;;5.60;5.10;;;;;;;28.22;41.81;100204.66;1795365;79;21086;-83
2022/08/13 10:03:01;;;;;;;7.70;5.85;;;;;;;28.21;41.79;100200.25;1795682;79;21073;-83
2022/08/13 10:05:34;;;;;;;5.90;5.28;;;;;;;28.21;41.81;100202.45;1795605;79;21515;-83
2022/08/13 10:08:05;;;;;;;6.12;5.50;;;;;;;28.22;41.82;100196.27;1795441;78;21055;-83
2022/08/13 10:10:32;;;;;;;5.90;5.30;;;;;;;28.22;41.81;100199.07;1795684;78;21117;-82
2022/08/13 10:13:02;;;;;;;6.12;5.53;;;;;;;28.21;41.80;100189.87;1795607;78;22105;-83
2022/08/13 10:15:29;;;;;;;5.45;4.95;;;;;;;28.22;41.82;100183.69;1816102;78;21672;-82
2022/08/13 10:17:58;;;;;;;6.30;5.25;;;;;;;28.21;41.81;100183.47;1830601;78;21725;-83
2022/08/13 10:20:32;;;;;;;6.42;5.53;;;;;;;28.22;41.81;100183.69;1830475;78;21085;-83
2022/08/13 10:22:58;;;;;;;6.28;5.65;;;;;;;28.21;41.83;100185.67;1830432;78;20926;-83
2022/08/13 10:25:26;;;;;;;6.50;5.83;;;;;;;28.22;41.83;100183.69;1830294;77;20974;-83
2022/08/13 10:27:52;;;;;;;6.05;5.45;;;;;;;28.21;41.86;100174.48;1830690;77;20982;-83
2022/08/13 10:30:23;;;;;;;6.58;5.90;;;;;;;28.22;41.86;100182.28;1830577;78;21009;-84
2022/08/13 10:32:54;;;;;;;7.42;5.42;;;;;;;28.21;41.85;100176.47;1830964;78;21004;-82
2022/08/13 10:35:20;;;;;;;7.22;5.42;;;;;;;28.22;41.86;100171.09;1831271;77;21243;-83
2022/08/13 10:37:49;;;;;;;6.00;5.40;;;;;;;28.22;41.84;100168.30;1830560;78;21023;-83
2022/08/13 10:40:15;;;;;;;5.90;5.30;;;;;;;28.22;41.83;100162.70;1831108;78;21052;-83
2022/08/13 10:42:44;;;;;;;6.10;5.47;;;;;;;28.22;41.77;100166.28;1830918;77;21009;-83
2022/08/13 10:45:13;;;;;;;6.72;5.10;;;;;;;28.22;41.87;100161.30;1830667;77;21025;-82
2022/08/13 10:47:54;;;;;;;6.08;5.20;;;;;;;28.22;41.87;100160.69;1830860;77;21061;-83
2022/08/13 10:50:29;;;;;;;6.00;5.20;;;;;;;28.23;41.87;100169.88;1830580;77;21084;-83
2022/08/13 10:52:51;;;;;;;6.55;5.47;;;;;;;28.22;41.88;100159.91;1830278;78;21128;-82
2022/08/13 10:55:17;;;;;;;6.40;5.58;;;;;;;28.22;41.90;100156.48;1830350;77;20957;-83
2022/08/13 10:57:45;;;;;;;7.25;5.50;;;;;;;28.23;41.92;100154.50;1830596;78;20910;-83
2022/08/13 11:00:14;;;;;;;5.80;5.20;;;;;;;28.22;41.92;100153.69;1830676;77;21609;-82
2022/08/13 11:02:41;;;;;;;6.28;5.42;;;;;;;28.23;41.94;100151.70;1830727;78;22031;-82
2022/08/13 11:05:09;;;;;;;6.37;5.40;;;;;;;28.22;41.96;100150.89;1830539;78;21008;-82
2022/08/13 11:07:36;;;;;;;6.15;5.10;;;;;;;28.22;41.96;100144.52;1830903;78;21061;-82
2022/08/13 11:10:05;;;;;;;5.95;5.28;;;;;;;28.22;41.96;100145.92;1830856;77;21056;-82
2022/08/13 11:12:33;;;;;;;6.15;5.55;;;;;;;28.22;41.99;100144.52;1807980;78;20994;-82
2022/08/13 11:15:00;;;;;;;7.97;5.05;;;;;;;28.22;42.00;100139.70;1830916;78;21232;-82
2022/08/13 11:17:27;;;;;;;7.17;5.72;;;;;;;28.22;41.99;100139.70;1830801;78;20974;-82
2022/08/13 11:19:54;;;;;;;6.33;5.60;;;;;;;28.23;42.02;100132.13;1830623;77;21017;-82
2022/08/13 11:22:21;;;;;;;5.72;5.10;;;;;;;28.22;42.03;100134.11;1830650;78;21534;-82
2022/08/13 11:24:48;;;;;;;5.97;5.33;;;;;;;28.24;42.05;100129.54;1830844;78;21012;-81
2022/08/13 11:27:15;;;;;;;5.65;5.05;;;;;;;28.23;42.08;100124.54;1822740;78;21551;-82
2022/08/13 11:29:42;;;;;;;5.92;5.25;;;;;;;28.23;42.09;100123.14;1741380;80;21925;-82
2022/08/13 11:32:08;;;;;;;6.08;5.33;;;;;;;28.24;42.11;100122.55;1777176;79;21040;-82
2022/08/13 11:34:35;;;;;;;6.05;5.45;;;;;;;28.24;42.11;100123.95;1776826;79;21582;-82
2022/08/13 11:37:01;;;;;;;6.75;6.05;;;;;;;28.24;42.13;100119.75;1777145;79;21053;-82
2022/08/13 11:39:28;;;;;;;5.65;5.15;;;;;;;28.23;42.14;100117.55;1777031;79;21143;-82
2022/08/13 11:42:01;;;;;;;6.92;5.62;;;;;;;28.24;42.13;100113.56;1776620;80;21076;-82
2022/08/13 11:44:27;;;;;;;5.55;4.80;;;;;;;28.24;42.14;100112.16;1777178;80;21032;-82
2022/08/13 11:46:53;;;;;;;5.72;5.22;;;;;;;28.24;42.12;100119.75;1776927;79;21457;-82
2022/08/13 11:49:21;;;;;;;6.00;5.40;;;;;;;28.23;42.13;100111.95;1776825;79;20986;-82